createdAt,value
2022-08-23T00:00:41.269Z,81.58
2022-08-23T00:03:13.031Z,81.79
2022-08-23T00:05:44.918Z,82.03
2022-08-23T00:08:17.343Z,81.70
2022-08-23T00:10:48.912Z,81.81
2022-08-23T00:13:21.440Z,81.69
2022-08-23T00:15:53.348Z,81.63
2022-08-23T00:18:25.529Z,81.64
2022-08-23T00:20:57.257Z,81.85
2022-08-23T00:23:29.903Z,82.08
2022-08-23T00:26:03.620Z,81.94
2022-08-23T00:28:35.331Z,82.27
2022-08-23T00:31:07.253Z,81.97
2022-08-23T00:33:40.725Z,81.78
2022-08-23T00:36:12.814Z,81.76
2022-08-23T00:38:44.475Z,82.26
2022-08-23T00:41:16.326Z,82.07
2022-08-23T00:44:08.081Z,82.45
2022-08-23T00:47:18.481Z,82.26
2022-08-23T00:49:53.898Z,81.95
2022-08-23T00:52:35.870Z,82.06
2022-08-23T00:55:09.805Z,81.72
2022-08-23T00:57:42.030Z,81.86
2022-08-23T01:00:23.695Z,81.94
2022-08-23T01:02:57.245Z,81.95
2022-08-23T01:05:34.735Z,81.87
2022-08-23T01:08:06.701Z,81.82
2022-08-23T01:10:46.552Z,82.13
2022-08-23T01:13:23.277Z,82.04
2022-08-23T01:16:06.966Z,81.82
2022-08-23T01:18:40.747Z,82.05
2022-08-23T01:21:20.925Z,82.01
2022-08-23T01:23:56.694Z,82.27
2022-08-23T01:26:28.649Z,82.38
2022-08-23T01:29:00.708Z,82.28
2022-08-23T01:31:34.467Z,82.18
2022-08-23T01:34:10.077Z,82.24
2022-08-23T01:36:43.603Z,82.32
2022-08-23T01:39:15.376Z,82.33
2022-08-23T01:41:49.500Z,82.41
2022-08-23T01:44:21.214Z,82.48
2022-08-23T01:46:53.161Z,82.21
2022-08-23T01:49:29.590Z,82.29
2022-08-23T01:52:04.711Z,82.04
2022-08-23T01:54:36.370Z,82.17
2022-08-23T01:57:10.985Z,82.22
2022-08-23T01:59:43.788Z,81.77
2022-08-23T02:02:17.551Z,81.96
2022-08-23T02:04:49.538Z,81.87
2022-08-23T02:07:22.771Z,81.63
2022-08-23T02:09:55.090Z,81.56
2022-08-23T02:12:28.072Z,81.56
2022-08-23T02:14:59.855Z,81.43
2022-08-23T02:17:31.565Z,81.44
2022-08-23T02:20:05.331Z,81.45
2022-08-23T02:22:40.620Z,81.39
2022-08-23T02:25:14.334Z,81.36
2022-08-23T02:27:46.117Z,81.29
2022-08-23T02:30:17.821Z,81.50
2022-08-23T02:32:52.010Z,81.35
2022-08-23T02:35:24.149Z,81.61
2022-08-23T02:37:55.950Z,81.45
2022-08-23T02:40:27.675Z,81.68
2022-08-23T02:43:00.920Z,81.56
2022-08-23T02:45:32.706Z,82.10
2022-08-23T02:48:04.946Z,82.00
2022-08-23T02:50:36.792Z,81.76
2022-08-23T02:53:10.523Z,81.78
2022-08-23T02:55:42.710Z,82.13
2022-08-23T02:58:14.555Z,82.47
2022-08-23T03:00:48.947Z,82.23
2022-08-23T03:03:23.656Z,82.33
2022-08-23T03:05:55.674Z,82.03
2022-08-23T03:08:47.406Z,81.81
2022-08-23T03:11:22.094Z,81.93
2022-08-23T03:13:55.223Z,81.87
2022-08-23T03:16:27.265Z,82.21
2022-08-23T03:18:59.060Z,82.14
2022-08-23T03:21:31.309Z,81.95
2022-08-23T03:24:10.261Z,81.76
2022-08-23T03:26:44.568Z,81.62
2022-08-23T03:29:16.347Z,81.99
2022-08-23T03:31:48.195Z,81.86
2022-08-23T03:34:20.866Z,81.72
2022-08-23T03:36:52.772Z,81.72
2022-08-23T03:39:24.952Z,82.26
2022-08-23T03:41:56.953Z,82.08
2022-08-23T03:44:29.723Z,82.38
2022-08-23T03:47:02.240Z,82.31
2022-08-23T03:49:34.208Z,82.36
2022-08-23T03:52:08.516Z,82.01
2022-08-23T03:54:42.307Z,82.51
2022-08-23T03:57:14.039Z,82.45
2022-08-23T03:59:46.636Z,82.44
2022-08-23T04:02:18.622Z,82.52
2022-08-23T04:04:50.383Z,82.35
2022-08-23T04:07:23.136Z,82.58
2022-08-23T04:09:55.562Z,82.33
2022-08-23T04:12:27.593Z,82.78
2022-08-23T04:15:01.629Z,82.83
2022-08-23T04:17:34.372Z,82.36
2022-08-23T04:20:14.423Z,82.61
2022-08-23T04:22:56.346Z,82.39
2022-08-23T04:25:33.646Z,82.61
2022-08-23T04:28:09.000Z,82.55
2022-08-23T04:30:44.023Z,82.39
2022-08-23T04:33:19.347Z,82.45
2022-08-23T04:35:54.037Z,82.40
2022-08-23T04:38:25.620Z,82.51
2022-08-23T04:41:18.252Z,82.53
2022-08-23T04:43:50.694Z,82.49
2022-08-23T04:46:22.470Z,82.42
2022-08-23T04:48:54.244Z,82.61
2022-08-23T04:51:27.567Z,82.72
2022-08-23T04:53:59.285Z,82.45
2022-08-23T04:56:32.044Z,82.40
2022-08-23T04:59:03.747Z,82.60
2022-08-23T05:01:37.559Z,82.43
2022-08-23T05:04:09.188Z,82.41
2022-08-23T05:06:41.396Z,82.32
2022-08-23T05:09:16.009Z,82.32
2022-08-23T05:11:54.687Z,82.07
2022-08-23T05:14:28.711Z,82.30
2022-08-23T05:17:00.906Z,82.21
2022-08-23T05:19:32.926Z,81.85
2022-08-23T05:22:06.293Z,81.83
2022-08-23T05:24:43.892Z,81.96
2022-08-23T05:27:15.856Z,81.85
2022-08-23T05:29:47.558Z,81.78
2022-08-23T05:32:20.236Z,81.74
2022-08-23T05:34:52.005Z,81.93
2022-08-23T05:37:23.642Z,81.92
2022-08-23T05:39:55.295Z,81.75
2022-08-23T05:42:28.929Z,81.57
2022-08-23T05:45:00.660Z,81.41
2022-08-23T05:47:37.142Z,81.45
2022-08-23T05:50:11.079Z,81.07
2022-08-23T05:52:50.377Z,81.10
2022-08-23T05:55:34.524Z,81.08
2022-08-23T05:58:06.645Z,81.03
2022-08-23T06:00:40.765Z,81.04
2022-08-23T06:03:14.172Z,80.85
2022-08-23T06:05:46.168Z,80.82
2022-08-23T06:08:18.728Z,80.85
2022-08-23T06:10:50.488Z,80.77
2022-08-23T06:13:22.130Z,80.45
2022-08-23T06:15:53.801Z,80.32
2022-08-23T06:18:25.561Z,80.31
2022-08-23T06:21:32.936Z,79.79
2022-08-23T06:24:07.853Z,79.60
2022-08-23T06:26:41.942Z,79.24
2022-08-23T06:29:16.058Z,79.39
2022-08-23T06:31:52.777Z,79.50
2022-08-23T06:34:28.043Z,79.55
2022-08-23T06:37:02.463Z,79.65
2022-08-23T06:39:37.530Z,79.84
2022-08-23T06:42:34.878Z,79.83
2022-08-23T06:45:03.783Z,79.93
2022-08-23T06:47:35.375Z,79.84
2022-08-23T06:50:17.962Z,80.06
2022-08-23T06:52:53.021Z,79.93
2022-08-23T06:55:26.286Z,79.85
2022-08-23T06:57:58.198Z,79.88
2022-08-23T07:00:31.613Z,79.74
2022-08-23T07:03:03.679Z,79.80
2022-08-23T07:05:35.403Z,79.58
2022-08-23T07:08:07.575Z,79.66
2022-08-23T07:10:41.911Z,79.70
2022-08-23T07:13:16.927Z,79.69
2022-08-23T07:15:50.990Z,79.60
2022-08-23T07:18:22.969Z,79.84
2022-08-23T07:20:59.757Z,79.73
2022-08-23T07:23:33.387Z,79.67
2022-08-23T07:26:08.708Z,79.79
2022-08-23T07:28:41.406Z,79.71
2022-08-23T07:31:17.722Z,79.75
2022-08-23T07:33:49.757Z,79.69
2022-08-23T07:36:24.815Z,79.75
2022-08-23T07:38:57.834Z,79.54
2022-08-23T07:41:33.881Z,79.44
2022-08-23T07:44:08.414Z,79.30
2022-08-23T07:46:42.728Z,79.37
2022-08-23T07:49:15.966Z,79.23
2022-08-23T07:51:52.410Z,79.37
2022-08-23T07:54:25.617Z,79.09
2022-08-23T07:56:57.502Z,78.97
2022-08-23T07:59:34.442Z,78.94
2022-08-23T08:02:07.507Z,78.65
2022-08-23T08:04:39.936Z,78.59
2022-08-23T08:07:19.297Z,78.33
2022-08-23T08:09:53.530Z,77.81
2022-08-23T08:12:27.924Z,77.51
2022-08-23T08:15:03.135Z,77.25
2022-08-23T08:17:35.060Z,76.98
2022-08-23T08:20:10.209Z,76.85
2022-08-23T08:22:47.237Z,76.96
2022-08-23T08:25:21.355Z,77.11
2022-08-23T08:27:53.176Z,77.26
2022-08-23T08:30:26.225Z,77.20
2022-08-23T08:32:58.215Z,76.96
2022-08-23T08:35:30.060Z,77.17
2022-08-23T08:38:03.304Z,77.08
2022-08-23T08:40:40.414Z,77.16
2022-08-23T08:43:27.424Z,75.95
2022-08-23T08:46:08.445Z,76.19
2022-08-23T08:48:44.947Z,75.38
2022-08-23T08:51:29.898Z,75.66
2022-08-23T08:54:05.896Z,75.80
2022-08-23T08:56:48.566Z,75.70
2022-08-23T08:59:24.372Z,75.93
2022-08-23T09:01:56.288Z,75.58
2022-08-23T09:04:30.038Z,75.33
2022-08-23T09:07:11.863Z,75.78
2022-08-23T09:10:18.357Z,75.36
2022-08-23T09:12:59.132Z,75.25
2022-08-23T09:15:40.950Z,75.33
2022-08-23T09:18:15.855Z,74.83
2022-08-23T09:20:55.155Z,75.21
2022-08-23T09:23:34.496Z,75.12
2022-08-23T09:26:17.887Z,75.53
2022-08-23T09:28:53.266Z,75.30
2022-08-23T09:34:43.868Z,74.74
2022-08-23T09:37:20.368Z,74.75
2022-08-23T09:39:55.948Z,74.00
2022-08-23T09:42:33.535Z,73.22
2022-08-23T09:45:08.754Z,73.58
2022-08-23T09:47:44.354Z,73.89
2022-08-23T09:50:27.879Z,73.90
2022-08-23T09:53:04.451Z,73.41
2022-08-23T09:55:39.619Z,73.81
2022-08-23T09:58:23.994Z,73.94
2022-08-23T10:01:15.854Z,74.33
2022-08-23T10:03:48.264Z,74.30
2022-08-23T10:06:34.272Z,74.00
2022-08-23T10:09:08.792Z,74.36
2022-08-23T10:11:46.633Z,74.15
2022-08-23T10:14:23.422Z,74.22
2022-08-23T10:17:08.032Z,74.37
2022-08-23T10:19:51.435Z,74.29
2022-08-23T10:22:26.058Z,74.52
2022-08-23T10:25:05.824Z,74.11
2022-08-23T10:28:02.787Z,74.29
2022-08-23T10:30:43.321Z,74.32
2022-08-23T10:33:21.544Z,74.29
2022-08-23T10:36:04.498Z,74.12
2022-08-23T10:38:46.555Z,73.50
2022-08-23T10:41:35.205Z,73.76
2022-08-23T10:44:27.050Z,73.70
2022-08-23T10:47:11.007Z,73.33
2022-08-23T10:49:45.347Z,72.80
2022-08-23T10:52:22.166Z,73.14
2022-08-23T10:55:01.150Z,73.58
2022-08-23T10:57:36.931Z,73.15
2022-08-23T11:00:23.093Z,73.14
2022-08-23T11:03:02.996Z,73.42
2022-08-23T11:05:39.411Z,73.74
2022-08-23T11:08:13.337Z,74.11
2022-08-23T11:10:53.739Z,74.12
2022-08-23T11:13:31.754Z,74.43
2022-08-23T11:16:14.853Z,74.47
2022-08-23T11:18:48.618Z,74.60
2022-08-23T11:21:47.163Z,74.72
2022-08-23T11:25:01.428Z,74.69
2022-08-23T11:27:40.836Z,74.96
2022-08-23T11:30:51.228Z,74.88
2022-08-23T11:33:43.051Z,75.17
2022-08-23T11:36:24.540Z,75.21
2022-08-23T11:39:19.573Z,75.23
2022-08-23T11:42:07.206Z,75.61
2022-08-23T11:44:48.328Z,77.04
2022-08-23T11:47:31.238Z,79.92
2022-08-23T11:50:29.676Z,80.26
2022-08-23T11:53:27.125Z,80.06
2022-08-23T11:56:20.241Z,81.27
2022-08-23T11:59:23.810Z,80.90
2022-08-23T12:01:55.897Z,81.14
2022-08-23T12:04:40.129Z,81.33
2022-08-23T12:07:13.743Z,81.56
2022-08-23T12:09:58.929Z,81.61
2022-08-23T12:12:39.428Z,81.48
2022-08-23T12:15:14.628Z,81.54
2022-08-23T12:18:13.503Z,81.31
2022-08-23T12:20:48.558Z,81.05
2022-08-23T12:23:23.876Z,81.26
2022-08-23T12:26:07.234Z,82.04
2022-08-23T12:28:45.365Z,81.50
2022-08-23T12:31:27.011Z,81.45
2022-08-23T12:34:11.907Z,81.55
2022-08-23T12:36:54.402Z,81.90
2022-08-23T12:39:31.002Z,81.26
2022-08-23T12:42:13.927Z,81.35
2022-08-23T12:44:48.191Z,81.28
2022-08-23T12:47:22.059Z,80.87
2022-08-23T12:50:03.545Z,80.64
2022-08-23T12:52:37.099Z,80.96
2022-08-23T12:55:18.635Z,81.14
2022-08-23T12:57:58.194Z,80.47
2022-08-23T13:00:35.145Z,80.79
2022-08-23T13:03:19.738Z,80.47
2022-08-23T13:05:56.075Z,80.32
2022-08-23T13:08:35.192Z,80.59
2022-08-23T13:11:08.951Z,80.45
2022-08-23T13:13:44.122Z,80.20
2022-08-23T13:16:32.524Z,80.20
2022-08-23T13:19:19.354Z,80.27
2022-08-23T13:22:06.558Z,80.23
2022-08-23T13:24:40.601Z,80.09
2022-08-23T13:27:22.709Z,79.80
2022-08-23T13:29:57.889Z,79.77
2022-08-23T13:32:41.712Z,79.79
2022-08-23T13:35:34.938Z,79.96
2022-08-23T13:38:21.662Z,79.73
2022-08-23T13:41:06.237Z,79.89
2022-08-23T13:43:42.419Z,79.57
2022-08-23T13:46:22.599Z,79.66
2022-08-23T13:49:07.407Z,79.56
2022-08-23T13:51:41.803Z,79.85
2022-08-23T13:54:15.866Z,79.73
2022-08-23T13:56:50.423Z,79.80
2022-08-23T13:59:31.711Z,79.86
2022-08-23T14:02:07.259Z,79.85
2022-08-23T14:04:39.453Z,79.88
2022-08-23T14:07:12.618Z,79.95
2022-08-23T14:09:45.022Z,80.27
2022-08-23T14:12:21.977Z,80.07
2022-08-23T14:14:53.958Z,80.19
2022-08-23T14:17:26.700Z,80.24
2022-08-23T14:22:52.876Z,80.19
2022-08-23T14:25:24.764Z,80.26
2022-08-23T14:27:56.637Z,80.22
2022-08-23T14:30:33.591Z,80.30
2022-08-23T14:33:06.492Z,80.20
2022-08-23T14:35:38.765Z,80.20
2022-08-23T14:38:12.396Z,80.44
2022-08-23T14:40:49.825Z,80.50
2022-08-23T14:43:22.373Z,80.31
2022-08-23T14:45:58.139Z,80.38
2022-08-23T14:48:30.282Z,80.41
2022-08-23T14:51:03.245Z,80.18
2022-08-23T14:53:38.000Z,80.43
2022-08-23T14:56:21.044Z,80.37
2022-08-23T14:58:53.921Z,80.52
2022-08-23T15:01:26.357Z,80.46
2022-08-23T15:03:58.759Z,80.43
2022-08-23T15:06:31.316Z,80.31
2022-08-23T15:09:03.311Z,80.35
2022-08-23T15:14:27.161Z,80.41
2022-08-23T15:17:00.025Z,80.35
2022-08-23T15:19:32.090Z,80.42
2022-08-23T15:22:18.451Z,80.31
2022-08-23T15:24:53.366Z,80.08
2022-08-23T15:27:26.130Z,80.00
2022-08-23T15:29:57.887Z,79.97
2022-08-23T15:32:29.725Z,79.75
2022-08-23T15:35:05.490Z,79.78
2022-08-23T15:37:38.375Z,79.82
2022-08-23T15:40:13.764Z,80.00
2022-08-23T15:42:47.174Z,80.06
2022-08-23T15:45:19.674Z,80.11
2022-08-23T15:47:53.650Z,80.07
2022-08-23T15:50:28.462Z,80.22
2022-08-23T15:53:01.157Z,80.31
2022-08-23T15:55:35.001Z,80.25
2022-08-23T15:58:07.545Z,80.39
2022-08-23T16:00:39.478Z,80.44
2022-08-23T16:03:19.434Z,80.46
2022-08-23T16:05:54.882Z,80.75
2022-08-23T16:08:28.990Z,80.83
2022-08-23T16:11:02.124Z,80.84
2022-08-23T16:13:34.037Z,80.93
2022-08-23T16:16:06.233Z,81.15
2022-08-23T16:18:39.343Z,81.09
2022-08-23T16:21:15.404Z,80.99
2022-08-23T16:23:47.521Z,81.11
2022-08-23T16:26:22.469Z,81.20
2022-08-23T16:29:03.750Z,81.24
2022-08-23T16:31:38.410Z,81.21
2022-08-23T16:34:15.559Z,81.28
2022-08-23T16:36:57.610Z,81.39
2022-08-23T16:39:32.693Z,81.31
2022-08-23T16:42:08.782Z,81.34
2022-08-23T16:44:41.437Z,81.39
2022-08-23T16:47:14.759Z,81.53
2022-08-23T16:49:46.827Z,81.44
2022-08-23T16:52:18.727Z,81.32
2022-08-23T16:54:55.464Z,81.33
2022-08-23T16:57:27.328Z,81.22
2022-08-23T17:00:01.058Z,81.29
2022-08-23T17:02:35.156Z,81.37
2022-08-23T17:05:09.051Z,81.30
2022-08-23T17:07:40.940Z,81.35
2022-08-23T17:10:19.350Z,81.40
2022-08-23T17:12:54.135Z,81.45
2022-08-23T17:15:29.268Z,81.46
2022-08-23T17:18:01.990Z,81.51
2022-08-23T17:20:39.437Z,81.61
2022-08-23T17:23:12.260Z,81.73
2022-08-23T17:25:47.799Z,81.66
2022-08-23T17:28:19.916Z,81.59
2022-08-23T17:30:52.652Z,81.72
2022-08-23T17:33:24.708Z,81.63
2022-08-23T17:35:56.527Z,81.66
2022-08-23T17:38:28.358Z,81.78
2022-08-23T17:41:00.993Z,81.67
2022-08-23T17:43:32.879Z,81.78
2022-08-23T17:46:05.052Z,81.75
2022-08-23T17:48:36.983Z,81.72
2022-08-23T17:51:09.891Z,81.71
2022-08-23T17:53:41.756Z,81.57
2022-08-23T17:56:13.961Z,81.63
2022-08-23T17:58:45.968Z,81.56
2022-08-23T18:01:18.771Z,81.63
2022-08-23T18:03:50.969Z,81.62
2022-08-23T18:06:23.009Z,81.67
2022-08-23T18:08:55.476Z,81.59
2022-08-23T18:11:27.782Z,81.65
2022-08-23T18:13:59.730Z,81.59
2022-08-23T18:16:35.508Z,81.74
2022-08-23T18:19:11.147Z,81.69
2022-08-23T18:21:47.561Z,81.75
2022-08-23T18:24:20.026Z,81.67
2022-08-23T18:27:10.046Z,81.83
2022-08-23T18:30:20.414Z,81.80
2022-08-23T18:33:46.927Z,81.90
2022-08-23T18:36:19.414Z,81.93
2022-08-23T18:38:51.322Z,81.97
2022-08-23T18:41:23.921Z,81.90
2022-08-23T18:43:56.751Z,82.03
2022-08-23T18:46:33.410Z,82.14
2022-08-23T18:49:08.513Z,82.05
2022-08-23T18:51:41.494Z,82.04
2022-08-23T18:54:13.773Z,82.17
2022-08-23T18:56:45.691Z,82.17
2022-08-23T18:59:17.646Z,82.18
2022-08-23T19:01:49.821Z,82.11
2022-08-23T19:04:22.066Z,82.15
2022-08-23T19:06:54.565Z,82.16
2022-08-23T19:09:26.572Z,82.23
2022-08-23T19:12:00.407Z,82.28
2022-08-23T19:14:35.592Z,82.24
2022-08-23T19:17:09.405Z,82.31
2022-08-23T19:19:41.481Z,82.24
2022-08-23T19:22:14.602Z,82.42
2022-08-23T19:24:46.527Z,82.43
2022-08-23T19:27:18.856Z,82.42
2022-08-23T19:29:51.115Z,82.38
2022-08-23T19:32:24.167Z,82.60
2022-08-23T19:34:56.078Z,82.64
2022-08-23T19:37:35.056Z,82.72
2022-08-23T19:40:26.443Z,82.73
2022-08-23T19:43:00.523Z,82.71
2022-08-23T19:45:32.647Z,82.76
2022-08-23T19:48:04.841Z,82.74
2022-08-23T19:50:38.756Z,82.86
2022-08-23T19:53:10.928Z,82.81
2022-08-23T19:55:45.350Z,82.92
2022-08-23T19:58:17.978Z,82.83
2022-08-23T20:00:52.293Z,82.84
2022-08-23T20:03:24.180Z,82.90
2022-08-23T20:05:56.118Z,82.92
2022-08-23T20:08:28.684Z,82.77
2022-08-23T20:11:02.405Z,82.78
2022-08-23T20:13:34.178Z,82.85
2022-08-23T20:16:06.924Z,82.72
2022-08-23T20:18:38.822Z,82.81
2022-08-23T20:21:12.231Z,82.58
2022-08-23T20:24:05.567Z,82.63
2022-08-23T20:26:40.738Z,82.56
2022-08-23T20:29:14.701Z,82.57
2022-08-23T20:31:53.863Z,82.51
2022-08-23T20:34:27.118Z,82.59
2022-08-23T20:37:00.334Z,82.39
2022-08-23T20:39:32.921Z,82.33
2022-08-23T20:42:05.103Z,82.43
2022-08-23T20:44:39.943Z,82.49
2022-08-23T20:47:12.958Z,82.38
2022-08-23T20:49:45.270Z,82.56
2022-08-23T20:52:19.385Z,82.35
2022-08-23T20:54:52.216Z,82.42
2022-08-23T20:57:24.234Z,82.39
2022-08-23T21:00:00.851Z,82.39
2022-08-23T21:02:32.780Z,82.40
2022-08-23T21:05:06.497Z,82.50
2022-08-23T21:07:38.904Z,82.42
2022-08-23T21:10:13.030Z,82.73
2022-08-23T21:12:44.774Z,82.61
2022-08-23T21:15:16.705Z,82.56
2022-08-23T21:17:48.557Z,82.56
2022-08-23T21:20:20.884Z,82.52
2022-08-23T21:22:54.588Z,82.44
2022-08-23T21:25:26.526Z,82.47
2022-08-23T21:28:02.175Z,82.61
2022-08-23T21:30:36.455Z,82.66
2022-08-23T21:33:09.574Z,82.62
2022-08-23T21:35:41.373Z,82.56
2022-08-23T21:38:13.794Z,82.53
2022-08-23T21:40:46.250Z,82.48
2022-08-23T21:43:19.051Z,82.51
2022-08-23T21:45:51.011Z,82.68
2022-08-23T21:48:24.544Z,82.61
2022-08-23T21:50:56.581Z,82.84
2022-08-23T21:53:29.701Z,82.78
2022-08-23T21:56:01.826Z,82.75
2022-08-23T21:58:33.755Z,82.88
2022-08-23T22:01:06.591Z,82.96
2022-08-23T22:03:41.538Z,82.77
2022-08-23T22:06:16.871Z,83.02
2022-08-23T22:08:49.541Z,82.77
2022-08-23T22:11:24.088Z,82.90
2022-08-23T22:13:57.213Z,83.18
2022-08-23T22:16:29.171Z,83.00
2022-08-23T22:19:01.219Z,82.92
2022-08-23T22:21:35.589Z,82.94
2022-08-23T22:24:08.329Z,83.05
2022-08-23T22:26:41.760Z,82.81
2022-08-23T22:29:15.397Z,83.07
2022-08-23T22:31:47.850Z,83.12
2022-08-23T22:34:19.801Z,83.01
2022-08-23T22:36:52.482Z,83.14
2022-08-23T22:39:24.864Z,83.34
2022-08-23T22:41:56.672Z,83.26
2022-08-23T22:44:28.765Z,83.12
2022-08-23T22:47:00.838Z,83.30
2022-08-23T22:49:32.633Z,83.22
2022-08-23T22:52:04.775Z,83.15
2022-08-23T22:54:37.463Z,83.32
2022-08-23T22:57:09.309Z,83.26
2022-08-23T22:59:42.112Z,83.25
2022-08-23T23:02:13.985Z,83.35
2022-08-23T23:04:47.950Z,83.17
2022-08-23T23:07:39.806Z,83.44
2022-08-23T23:10:21.342Z,83.45
2022-08-23T23:12:53.296Z,83.48
2022-08-23T23:15:25.164Z,83.40
2022-08-23T23:17:57.056Z,83.41
2022-08-23T23:20:41.819Z,83.28
2022-08-23T23:23:17.447Z,83.25
2022-08-23T23:25:50.150Z,83.37
2022-08-23T23:28:22.926Z,83.38
2022-08-23T23:30:59.464Z,83.55
2022-08-23T23:33:31.544Z,83.42
2022-08-23T23:36:03.552Z,83.54
2022-08-23T23:38:35.344Z,83.37
2022-08-23T23:41:10.378Z,83.41
2022-08-23T23:43:43.013Z,83.59
2022-08-23T23:46:19.017Z,83.49
2022-08-23T23:48:51.440Z,83.41
2022-08-23T23:51:28.983Z,83.43
2022-08-23T23:54:02.676Z,83.45
2022-08-23T23:56:39.371Z,83.45
2022-08-23T23:59:11.348Z,83.34
